sensor_id;sensor_type;location;lat;lon;timestamp;P1;durP1;ratioP1;P2;durP2;ratioP2
20365;SDS011;10341;49.894;8.822;2023-01-08T18:10:24;16.02;;;8.32;;
20365;SDS011;10341;49.894;8.822;2023-01-08T18:15:44;4.15;;;2.00;;
20365;SDS011;10341;49.894;8.822;2023-01-08T18:21:03;3.72;;;1.85;;
20365;SDS011;10341;49.894;8.822;2023-01-08T18:26:23;4.00;;;2.60;;
20365;SDS011;10341;49.894;8.822;2023-01-08T18:31:42;2.97;;;2.35;;
20365;SDS011;10341;49.894;8.822;2023-01-08T18:37:01;7.33;;;4.40;;
20365;SDS011;10341;49.894;8.822;2023-01-08T18:42:20;8.17;;;4.80;;
20365;SDS011;10341;49.894;8.822;2023-01-08T18:47:46;6.75;;;4.22;;
20365;SDS011;10341;49.894;8.822;2023-01-08T18:53:05;7.43;;;4.30;;
20365;SDS011;10341;49.894;8.822;2023-01-08T18:58:26;6.13;;;4.03;;
20365;SDS011;10341;49.894;8.822;2023-01-08T19:03:46;7.05;;;4.15;;
20365;SDS011;10341;49.894;8.822;2023-01-08T19:09:06;8.05;;;4.32;;
20365;SDS011;10341;49.894;8.822;2023-01-08T19:14:25;5.70;;;3.88;;
20365;SDS011;10341;49.894;8.822;2023-01-08T19:19:45;7.55;;;5.07;;
20365;SDS011;10341;49.894;8.822;2023-01-08T19:25:05;8.93;;;5.63;;
20365;SDS011;10341;49.894;8.822;2023-01-08T19:35:44;7.38;;;4.47;;
20365;SDS011;10341;49.894;8.822;2023-01-08T19:41:04;12.00;;;6.88;;
20365;SDS011;10341;49.894;8.822;2023-01-08T19:46:44;10.75;;;6.43;;
20365;SDS011;10341;49.894;8.822;2023-01-08T19:52:04;11.40;;;6.57;;
20365;SDS011;10341;49.894;8.822;2023-01-08T19:57:23;8.50;;;5.18;;
20365;SDS011;10341;49.894;8.822;2023-01-08T20:02:43;7.97;;;4.95;;
20365;SDS011;10341;49.894;8.822;2023-01-08T20:08:02;10.60;;;6.43;;
20365;SDS011;10341;49.894;8.822;2023-01-08T20:13:22;10.52;;;6.93;;
20365;SDS011;10341;49.894;8.822;2023-01-08T20:18:42;12.07;;;7.47;;
20365;SDS011;10341;49.894;8.822;2023-01-08T20:24:03;11.27;;;6.35;;
20365;SDS011;10341;49.894;8.822;2023-01-08T20:29:28;7.97;;;4.72;;
20365;SDS011;10341;49.894;8.822;2023-01-08T20:34:47;6.07;;;4.00;;
20365;SDS011;10341;49.894;8.822;2023-01-08T20:40:07;6.75;;;4.75;;
20365;SDS011;10341;49.894;8.822;2023-01-08T20:45:27;5.88;;;3.97;;
20365;SDS011;10341;49.894;8.822;2023-01-08T20:50:57;4.78;;;3.40;;
20365;SDS011;10341;49.894;8.822;2023-01-08T20:56:19;5.70;;;2.90;;
20365;SDS011;10341;49.894;8.822;2023-01-08T21:01:39;5.82;;;3.30;;
20365;SDS011;10341;49.894;8.822;2023-01-08T21:06:58;5.53;;;3.25;;
20365;SDS011;10341;49.894;8.822;2023-01-08T21:12:18;4.32;;;3.00;;
20365;SDS011;10341;49.894;8.822;2023-01-08T21:17:37;5.75;;;3.45;;
20365;SDS011;10341;49.894;8.822;2023-01-08T21:22:57;5.07;;;3.30;;
20365;SDS011;10341;49.894;8.822;2023-01-08T21:28:18;6.32;;;3.97;;
20365;SDS011;10341;49.894;8.822;2023-01-08T21:33:37;4.32;;;3.08;;
20365;SDS011;10341;49.894;8.822;2023-01-08T21:39:00;5.95;;;3.17;;
20365;SDS011;10341;49.894;8.822;2023-01-08T21:44:20;3.83;;;2.60;;
20365;SDS011;10341;49.894;8.822;2023-01-08T21:50:00;4.45;;;2.50;;
20365;SDS011;10341;49.894;8.822;2023-01-08T21:55:20;3.15;;;2.05;;
20365;SDS011;10341;49.894;8.822;2023-01-08T22:00:39;4.57;;;2.20;;
20365;SDS011;10341;49.894;8.822;2023-01-08T22:05:59;3.42;;;1.70;;
20365;SDS011;10341;49.894;8.822;2023-01-08T22:11:20;4.88;;;1.63;;
20365;SDS011;10341;49.894;8.822;2023-01-08T22:16:40;2.00;;;1.55;;
20365;SDS011;10341;49.894;8.822;2023-01-08T22:21:59;1.85;;;1.38;;
20365;SDS011;10341;49.894;8.822;2023-01-08T22:27:19;2.35;;;1.80;;
20365;SDS011;10341;49.894;8.822;2023-01-08T22:32:39;1.88;;;1.65;;
20365;SDS011;10341;49.894;8.822;2023-01-08T22:37:59;2.40;;;1.90;;
20365;SDS011;10341;49.894;8.822;2023-01-08T22:43:19;2.70;;;1.80;;
20365;SDS011;10341;49.894;8.822;2023-01-08T22:48:38;2.85;;;2.10;;
20365;SDS011;10341;49.894;8.822;2023-01-08T22:53:58;2.75;;;1.80;;
20365;SDS011;10341;49.894;8.822;2023-01-08T22:59:18;3.53;;;2.38;;
20365;SDS011;10341;49.894;8.822;2023-01-08T23:04:38;4.97;;;2.22;;
20365;SDS011;10341;49.894;8.822;2023-01-08T23:09:57;3.72;;;2.75;;
20365;SDS011;10341;49.894;8.822;2023-01-08T23:15:17;4.13;;;2.70;;
20365;SDS011;10341;49.894;8.822;2023-01-08T23:20:37;4.15;;;2.85;;
20365;SDS011;10341;49.894;8.822;2023-01-08T23:26:08;4.78;;;3.25;;
20365;SDS011;10341;49.894;8.822;2023-01-08T23:31:29;4.97;;;3.28;;
20365;SDS011;10341;49.894;8.822;2023-01-08T23:42:09;3.78;;;2.78;;
20365;SDS011;10341;49.894;8.822;2023-01-08T23:47:28;6.38;;;3.20;;
20365;SDS011;10341;49.894;8.822;2023-01-08T23:52:48;5.80;;;3.35;;
20365;SDS011;10341;49.894;8.822;2023-01-08T23:58:07;5.57;;;3.65;;
